Time;durP1;ratioP1;P1;durP2;ratioP2;P2;SDS_P1;SDS_P2;PMS_P1;PMS_P2;Temp;Humidity;BMP_temperature;BMP_pressure;BME280_temperature;BME280_humidity;BME280_pressure;Samples;Min_cycle;Max_cycle;Signal;HPM_P1;HPM_P2
2022/03/03 00:02:26;;;;;;;24.90;3.83;;;11.60;99.90;;;;;;5067219;28;20202;-68
2022/03/03 00:04:52;;;;;;;24.57;4.40;;;11.60;99.90;;;;;;5064194;28;20215;-67
2022/03/03 00:07:18;;;;;;;18.47;3.10;;;11.50;99.90;;;;;;5062892;28;20674;-67
2022/03/03 00:09:45;;;;;;;18.17;3.67;;;11.50;99.90;;;;;;5065574;28;20206;-67
2022/03/03 00:12:11;;;;;;;19.07;3.50;;;11.50;99.90;;;;;;5067002;28;20187;-67
2022/03/03 00:14:37;;;;;;;26.90;4.37;;;11.60;99.90;;;;;;5065765;28;20198;-68
2022/03/03 00:17:04;;;;;;;26.57;4.67;;;11.60;99.90;;;;;;5066735;28;20191;-67
2022/03/03 00:19:30;;;;;;;24.50;4.10;;;11.60;99.90;;;;;;5061913;28;20280;-68
2022/03/03 00:21:56;;;;;;;21.40;3.43;;;11.60;99.90;;;;;;5077606;28;20255;-67
2022/03/03 00:24:23;;;;;;;29.10;4.80;;;11.60;99.90;;;;;;5067161;28;20710;-67
2022/03/03 00:26:49;;;;;;;25.90;4.23;;;11.60;99.90;;;;;;5064731;28;20260;-67
2022/03/03 00:29:15;;;;;;;19.73;3.37;;;11.60;99.90;;;;;;5067249;28;20183;-67
2022/03/03 00:31:42;;;;;;;26.43;4.83;;;11.60;99.90;;;;;;5063934;28;20186;-68
2022/03/03 00:34:08;;;;;;;25.60;5.03;;;11.60;99.90;;;;;;5064909;28;20276;-67
2022/03/03 00:36:34;;;;;;;32.73;5.03;;;11.60;99.90;;;;;;5079407;28;20278;-67
2022/03/03 00:39:03;;;;;;;28.00;5.17;;;11.60;99.90;;;;;;5070668;28;20619;-67
2022/03/03 00:52:32;;;;;;;24.87;4.50;;;11.70;99.90;;;;;;5090490;28;20182;-65
2022/03/03 00:54:59;;;;;;;24.97;4.70;;;11.70;99.90;;;;;;5068064;28;20274;-66
2022/03/03 00:57:25;;;;;;;26.70;4.63;;;11.60;99.90;;;;;;5070407;28;20577;-66
2022/03/03 00:59:51;;;;;;;20.67;4.03;;;11.70;99.90;;;;;;5056673;28;20191;-66
2022/03/03 01:02:17;;;;;;;22.40;4.50;;;11.70;99.90;;;;;;5074658;28;20194;-66
2022/03/03 01:04:44;;;;;;;18.43;3.73;;;11.60;99.90;;;;;;5069783;28;20240;-66
2022/03/03 01:07:10;;;;;;;26.67;4.43;;;11.40;99.90;;;;;;5066177;28;20190;-67
2022/03/03 01:09:37;;;;;;;26.93;4.43;;;11.20;99.90;;;;;;5081249;28;20221;-66
2022/03/03 01:12:03;;;;;;;26.37;4.77;;;11.20;99.90;;;;;;5085924;28;20197;-67
2022/03/03 01:14:30;;;;;;;27.77;5.07;;;11.20;99.90;;;;;;5066180;28;20650;-66
2022/03/03 01:16:56;;;;;;;25.93;5.57;;;11.10;99.90;;;;;;5068364;28;20199;-66
2022/03/03 01:19:22;;;;;;;30.97;5.13;;;11.10;99.90;;;;;;5051837;28;20879;-63
2022/03/03 01:21:49;;;;;;;26.03;4.87;;;11.20;99.90;;;;;;5071240;28;20183;-65
2022/03/03 01:24:15;;;;;;;24.90;3.63;;;11.20;99.90;;;;;;5062339;28;20527;-64
2022/03/03 01:26:42;;;;;;;22.90;4.00;;;11.10;99.90;;;;;;5068949;28;20340;-65
2022/03/03 01:29:09;;;;;;;20.33;4.07;;;11.10;99.90;;;;;;5068503;28;20191;-66
2022/03/03 01:31:36;;;;;;;20.93;4.83;;;11.00;99.90;;;;;;5069231;28;20210;-65
2022/03/03 01:34:03;;;;;;;28.53;4.00;;;10.90;99.90;;;;;;5069067;28;20384;-65
2022/03/03 01:36:29;;;;;;;26.40;4.90;;;10.90;99.90;;;;;;5080376;28;20372;-66
2022/03/03 01:38:55;;;;;;;20.60;4.07;;;10.90;99.90;;;;;;5068284;28;20632;-67
2022/03/03 01:41:22;;;;;;;23.97;4.83;;;10.90;99.90;;;;;;5083098;28;20648;-66
2022/03/03 01:43:48;;;;;;;26.87;4.30;;;10.80;99.90;;;;;;5069026;28;20261;-65
2022/03/03 01:46:16;;;;;;;23.10;4.37;;;10.80;99.90;;;;;;5067787;28;20242;-66
2022/03/03 01:48:45;;;;;;;25.13;4.30;;;10.80;99.90;;;;;;5069430;28;20607;-66
2022/03/03 01:51:12;;;;;;;17.33;3.43;;;10.70;99.90;;;;;;5078260;28;20259;-65
2022/03/03 01:53:39;;;;;;;17.13;4.13;;;10.60;99.90;;;;;;5071337;28;20270;-65
2022/03/03 01:56:07;;;;;;;21.03;3.70;;;10.60;99.90;;;;;;5060817;28;20191;-67
2022/03/03 01:58:36;;;;;;;13.97;2.90;;;10.60;99.90;;;;;;5069512;28;20198;-66
2022/03/03 02:01:03;;;;;;;21.37;3.93;;;10.60;99.90;;;;;;5070175;28;20182;-65
2022/03/03 02:03:29;;;;;;;27.77;3.87;;;10.70;99.90;;;;;;5067796;28;20500;-65
2022/03/03 02:05:56;;;;;;;23.63;4.27;;;10.70;99.90;;;;;;5064697;28;20996;-66
2022/03/03 02:08:23;;;;;;;21.43;4.40;;;10.70;99.90;;;;;;5069569;28;20210;-65
2022/03/03 02:10:52;;;;;;;16.57;3.40;;;10.60;99.90;;;;;;5070203;28;20178;-64
2022/03/03 02:13:19;;;;;;;24.57;3.70;;;10.50;99.90;;;;;;5067187;28;20198;-65
2022/03/03 02:15:54;;;;;;;16.63;3.20;;;10.30;99.90;;;;;;5067747;28;20611;-65
2022/03/03 02:18:21;;;;;;;26.20;4.07;;;10.30;99.90;;;;;;5068584;28;20232;-65
2022/03/03 02:20:48;;;;;;;22.10;3.47;;;10.20;99.90;;;;;;5070016;28;20256;-65
2022/03/03 02:23:15;;;;;;;18.30;3.80;;;10.30;99.90;;;;;;5064375;28;20329;-65
2022/03/03 02:25:42;;;;;;;16.33;3.07;;;10.30;99.90;;;;;;5044049;28;20209;-65
2022/03/03 02:28:08;;;;;;;19.67;4.63;;;10.30;99.90;;;;;;5065051;28;20193;-64
2022/03/03 02:30:37;;;;;;;26.07;4.57;;;10.30;99.90;;;;;;5053810;28;20182;-67
2022/03/03 02:33:06;;;;;;;26.27;4.40;;;10.30;99.90;;;;;;5065124;28;20639;-64
2022/03/03 02:35:33;;;;;;;22.97;4.20;;;10.40;99.90;;;;;;5066927;28;20194;-66
2022/03/03 02:37:59;;;;;;;19.30;4.80;;;10.40;99.90;;;;;;5067564;28;20209;-64
2022/03/03 02:40:25;;;;;;;16.70;4.07;;;10.50;99.90;;;;;;5050331;28;20179;-65
2022/03/03 02:42:55;;;;;;;22.97;4.23;;;10.50;99.90;;;;;;5049355;28;20215;-64
2022/03/03 02:45:23;;;;;;;20.03;5.07;;;10.50;99.90;;;;;;5065440;28;20264;-64
2022/03/03 02:47:51;;;;;;;28.30;5.17;;;10.40;99.90;;;;;;5068690;28;20205;-65
2022/03/03 02:50:28;;;;;;;18.70;4.97;;;10.50;99.90;;;;;;5069186;28;20194;-65
2022/03/03 02:52:57;;;;;;;27.17;5.13;;;10.50;99.90;;;;;;5067626;28;20542;-64
2022/03/03 02:55:23;;;;;;;21.67;5.40;;;10.50;99.90;;;;;;5065053;28;20198;-65
2022/03/03 02:57:56;;;;;;;25.07;5.50;;;10.50;99.90;;;;;;5063275;28;20210;-64
2022/03/03 03:00:26;;;;;;;19.37;5.37;;;10.50;99.90;;;;;;5069302;28;20226;-64
2022/03/03 03:02:53;;;;;;;19.57;5.23;;;10.50;99.90;;;;;;5068853;28;20187;-63
2022/03/03 03:05:20;;;;;;;18.63;4.93;;;10.40;99.90;;;;;;5066388;28;20210;-64
2022/03/03 03:07:48;;;;;;;15.33;4.80;;;10.30;99.90;;;;;;5070855;28;20194;-63
2022/03/03 03:10:14;;;;;;;18.50;4.40;;;10.30;99.90;;;;;;5068018;28;20193;-64
2022/03/03 03:12:41;;;;;;;8.13;3.70;;;10.20;99.90;;;;;;5066639;28;20296;-64
2022/03/03 03:15:08;;;;;;;22.07;4.43;;;10.20;99.90;;;;;;5067456;28;20190;-63
2022/03/03 03:17:36;;;;;;;22.63;4.97;;;10.20;99.90;;;;;;5066565;28;20209;-63
2022/03/03 03:20:06;;;;;;;23.00;5.13;;;10.20;99.90;;;;;;5069703;28;20261;-63
2022/03/03 03:22:34;;;;;;;19.20;4.37;;;10.20;99.90;;;;;;5054920;28;20186;-64
2022/03/03 03:25:03;;;;;;;15.17;4.30;;;10.10;99.90;;;;;;5066096;28;20218;-64
2022/03/03 03:27:29;;;;;;;11.87;4.13;;;10.00;99.90;;;;;;5062634;28;22222;-63
2022/03/03 03:29:55;;;;;;;14.53;4.17;;;9.90;99.90;;;;;;5066280;28;20194;-63
2022/03/03 03:32:24;;;;;;;19.60;4.33;;;9.80;99.90;;;;;;5066851;28;20179;-65
2022/03/03 03:34:50;;;;;;;16.00;4.97;;;9.70;99.90;;;;;;5049443;28;20244;-63
2022/03/03 03:37:17;;;;;;;16.07;4.83;;;9.60;99.90;;;;;;5064839;28;20237;-63
2022/03/03 03:39:43;;;;;;;21.43;5.23;;;9.60;99.90;;;;;;5068380;28;20186;-64
2022/03/03 03:42:10;;;;;;;15.80;4.67;;;9.60;99.90;;;;;;5068344;28;20185;-64
2022/03/03 03:44:38;;;;;;;25.73;6.40;;;9.60;99.90;;;;;;5065846;28;20271;-64
2022/03/03 03:47:06;;;;;;;28.50;5.87;;;9.60;99.90;;;;;;5064543;28;20211;-64
2022/03/03 03:49:33;;;;;;;23.67;5.60;;;9.70;99.90;;;;;;5067534;28;20183;-62
2022/03/03 03:52:00;;;;;;;26.33;5.77;;;9.70;99.90;;;;;;5067587;28;20818;-64
2022/03/03 03:54:26;;;;;;;16.90;5.40;;;9.80;99.90;;;;;;5050258;28;20273;-65
2022/03/03 03:56:53;;;;;;;14.17;4.80;;;9.70;99.90;;;;;;5064653;28;20183;-64
2022/03/03 03:59:19;;;;;;;22.00;5.43;;;9.60;99.90;;;;;;5057305;28;20243;-65
2022/03/03 04:01:45;;;;;;;13.40;4.30;;;9.50;99.90;;;;;;5068077;28;20221;-64
2022/03/03 04:04:12;;;;;;;10.80;3.77;;;9.40;99.90;;;;;;5065990;28;20282;-64
2022/03/03 04:06:40;;;;;;;11.83;3.97;;;9.30;99.90;;;;;;5071665;28;20245;-65
2022/03/03 04:09:06;;;;;;;13.43;4.00;;;9.20;99.90;;;;;;5065674;28;20191;-65
2022/03/03 04:11:32;;;;;;;16.87;4.20;;;9.20;99.90;;;;;;5066395;28;20296;-64
2022/03/03 04:13:59;;;;;;;15.67;4.67;;;9.10;99.90;;;;;;5067842;28;20191;-64
2022/03/03 04:16:26;;;;;;;15.47;4.23;;;9.10;99.90;;;;;;5064900;28;20191;-65
2022/03/03 04:18:52;;;;;;;23.10;5.40;;;9.20;99.90;;;;;;5066625;28;20644;-64
2022/03/03 04:21:19;;;;;;;24.57;5.57;;;9.30;99.90;;;;;;5073950;28;20198;-65
2022/03/03 04:23:46;;;;;;;13.73;4.77;;;9.30;99.90;;;;;;5074611;28;20531;-64
2022/03/03 04:26:12;;;;;;;15.80;4.77;;;9.20;99.90;;;;;;5066960;28;20239;-67
2022/03/03 04:28:38;;;;;;;16.13;4.10;;;9.20;99.90;;;;;;5066167;28;20210;-66
2022/03/03 04:31:05;;;;;;;13.80;4.17;;;9.10;99.90;;;;;;5066131;28;20269;-67
2022/03/03 04:33:32;;;;;;;13.10;4.03;;;9.00;99.90;;;;;;5070147;28;20203;-67
2022/03/03 04:35:58;;;;;;;14.33;4.97;;;9.00;99.90;;;;;;5068273;28;20191;-66
2022/03/03 04:38:26;;;;;;;15.73;4.80;;;9.00;99.90;;;;;;5068599;28;20291;-67
2022/03/03 04:40:52;;;;;;;12.10;4.17;;;9.00;99.90;;;;;;5050564;28;20179;-67
2022/03/03 04:43:18;;;;;;;18.50;5.53;;;9.00;99.90;;;;;;5064729;28;20214;-66
2022/03/03 04:45:45;;;;;;;16.63;4.63;;;9.00;99.90;;;;;;5052571;28;20297;-67
2022/03/03 04:48:11;;;;;;;15.23;4.70;;;9.00;99.90;;;;;;5039512;28;20218;-66
2022/03/03 04:50:37;;;;;;;16.27;4.63;;;9.00;99.90;;;;;;5052048;28;20183;-64
2022/03/03 04:53:04;;;;;;;21.13;5.03;;;9.00;99.90;;;;;;5069390;28;20183;-65
2022/03/03 04:55:30;;;;;;;20.87;5.63;;;9.10;99.90;;;;;;5049813;28;20187;-66
2022/03/03 04:57:56;;;;;;;12.53;3.33;;;9.10;99.90;;;;;;5070510;28;20190;-64
2022/03/03 05:00:22;;;;;;;11.03;3.50;;;9.00;99.90;;;;;;5062395;28;20198;-65
2022/03/03 05:02:49;;;;;;;9.93;3.20;;;8.80;99.90;;;;;;5069791;28;20525;-63
2022/03/03 05:05:15;;;;;;;11.27;3.43;;;8.60;99.90;;;;;;5069027;28;20301;-64
2022/03/03 05:07:41;;;;;;;15.97;4.37;;;8.60;99.90;;;;;;5068479;28;20228;-64
2022/03/03 05:10:09;;;;;;;21.17;4.07;;;8.60;99.90;;;;;;5070612;28;20256;-65
2022/03/03 05:12:35;;;;;;;18.53;5.07;;;8.60;99.90;;;;;;5071112;28;20190;-63
2022/03/03 05:15:02;;;;;;;18.73;5.23;;;8.70;99.90;;;;;;5068756;28;20198;-64
2022/03/03 05:17:28;;;;;;;30.17;6.13;;;8.80;99.90;;;;;;5066130;28;20191;-64
2022/03/03 05:19:55;;;;;;;22.30;6.30;;;8.80;99.90;;;;;;5052538;28;20671;-65
2022/03/03 05:22:22;;;;;;;15.37;5.17;;;8.90;99.90;;;;;;5061493;28;20183;-64
2022/03/03 05:24:51;;;;;;;16.60;5.47;;;9.00;99.90;;;;;;5070475;28;20195;-63
2022/03/03 05:27:17;;;;;;;20.20;6.10;;;8.90;99.90;;;;;;5068995;28;20183;-64
2022/03/03 05:29:43;;;;;;;24.67;5.77;;;8.90;99.90;;;;;;5070134;28;20202;-64
2022/03/03 05:32:10;;;;;;;27.50;6.07;;;8.90;99.90;;;;;;5062417;28;20240;-64
2022/03/03 05:34:36;;;;;;;32.30;6.43;;;8.90;99.90;;;;;;5069428;28;20731;-64
2022/03/03 05:37:05;;;;;;;35.97;7.40;;;8.90;99.90;;;;;;5069303;28;20186;-63
2022/03/03 05:39:32;;;;;;;31.60;7.27;;;9.00;99.90;;;;;;5051653;28;20189;-64
2022/03/03 05:41:58;;;;;;;31.80;7.67;;;9.10;99.90;;;;;;5052035;28;20266;-63
2022/03/03 05:44:27;;;;;;;24.57;6.80;;;9.10;99.90;;;;;;5069680;28;20183;-65
2022/03/03 05:46:55;;;;;;;33.17;7.97;;;9.10;99.90;;;;;;5039494;28;20215;-63
2022/03/03 05:49:23;;;;;;;26.53;7.30;;;9.10;99.90;;;;;;5067370;28;20274;-64
2022/03/03 05:51:49;;;;;;;28.33;7.83;;;9.10;99.90;;;;;;5067607;28;20219;-65
2022/03/03 05:54:15;;;;;;;36.03;7.93;;;9.10;99.90;;;;;;5068308;28;20528;-64
2022/03/03 05:56:48;;;;;;;33.33;7.27;;;9.20;99.90;;;;;;5067363;28;20190;-63
2022/03/03 05:59:15;;;;;;;22.33;6.47;;;9.30;99.90;;;;;;5065666;28;20218;-65
2022/03/03 06:01:43;;;;;;;27.40;7.30;;;9.30;99.90;;;;;;5064364;28;20278;-65
2022/03/03 06:04:15;;;;;;;38.20;6.83;;;9.30;99.90;;;;;;5064281;28;20202;-64
2022/03/03 06:07:05;;;;;;;34.80;8.27;;;9.40;99.90;;;;;;5067139;28;20207;-65
2022/03/03 06:09:34;;;;;;;35.77;6.87;;;9.40;99.90;;;;;;5062881;28;20187;-65
2022/03/03 06:12:25;;;;;;;33.03;6.77;;;9.50;99.90;;;;;;5068939;28;20186;-64
2022/03/03 06:14:55;;;;;;;26.80;6.10;;;9.50;99.90;;;;;;5050735;28;20183;-65
2022/03/03 06:17:24;;;;;;;20.20;5.60;;;9.40;99.90;;;;;;5067662;28;20198;-65
2022/03/03 06:19:52;;;;;;;23.80;5.57;;;9.10;99.90;;;;;;5063057;28;20198;-64
2022/03/03 06:22:20;;;;;;;23.73;5.63;;;9.00;99.90;;;;;;5069182;28;20194;-63
2022/03/03 06:24:48;;;;;;;25.80;6.50;;;8.90;99.90;;;;;;5049848;28;20237;-64
2022/03/03 06:27:15;;;;;;;28.70;7.13;;;8.90;99.90;;;;;;5066236;28;20264;-66
2022/03/03 06:29:41;;;;;;;39.30;9.57;;;9.00;99.90;;;;;;5068343;28;20183;-64
2022/03/03 06:32:09;;;;;;;36.40;8.07;;;9.10;99.90;;;;;;5061011;28;20246;-64
2022/03/03 06:34:36;;;;;;;26.17;7.90;;;9.10;99.90;;;;;;5061221;28;20202;-67
2022/03/03 06:37:04;;;;;;;34.70;8.27;;;9.20;99.90;;;;;;5069367;28;20194;-68
2022/03/03 06:39:31;;;;;;;28.53;6.57;;;9.30;99.90;;;;;;5068847;28;20187;-66
2022/03/03 06:41:57;;;;;;;36.87;7.30;;;9.30;99.90;;;;;;5068831;28;20232;-66
2022/03/03 06:44:24;;;;;;;41.73;7.27;;;9.30;99.90;;;;;;5066815;28;20265;-65
2022/03/03 06:46:51;;;;;;;33.83;7.50;;;9.30;99.90;;;;;;5067151;28;20826;-65
2022/03/03 06:49:17;;;;;;;28.57;7.40;;;9.40;99.90;;;;;;5062455;28;20205;-66
2022/03/03 06:51:47;;;;;;;39.30;8.50;;;9.40;99.90;;;;;;5061776;28;20270;-66
2022/03/03 06:54:20;;;;;;;34.67;7.80;;;9.50;99.90;;;;;;5066544;28;20183;-67
2022/03/03 06:56:56;;;;;;;38.17;8.77;;;9.50;99.90;;;;;;5080647;28;20859;-66
2022/03/03 06:59:27;;;;;;;46.47;10.10;;;9.60;99.90;;;;;;5065919;28;20189;-66
2022/03/03 07:01:55;;;;;;;35.30;9.17;;;9.60;99.90;;;;;;5068095;28;20267;-67
2022/03/03 07:15:26;;;;;;;13.80;3.50;;;9.30;99.90;;;;;;5065083;28;20214;-68
2022/03/03 07:18:17;;;;;;;14.80;3.43;;;9.10;99.90;;;;;;5061987;28;20213;-67
2022/03/03 07:20:58;;;;;;;10.30;3.20;;;9.10;99.90;;;;;;5049501;28;20190;-66
2022/03/03 07:23:48;;;;;;;11.80;3.27;;;9.10;99.90;;;;;;5082445;28;20666;-65
2022/03/03 07:26:17;;;;;;;11.30;2.77;;;9.10;99.90;;;;;;5064265;28;21038;-66
2022/03/03 07:28:52;;;;;;;17.23;2.70;;;9.10;99.90;;;;;;5061457;28;20333;-65
2022/03/03 07:31:23;;;;;;;13.83;2.80;;;9.10;99.90;;;;;;5067707;28;20244;-64
2022/03/03 07:33:56;;;;;;;22.73;2.90;;;9.20;99.90;;;;;;5055306;28;20183;-66
2022/03/03 07:36:37;;;;;;;22.73;2.77;;;9.20;99.90;;;;;;5066372;28;20190;-65
2022/03/03 07:39:10;;;;;;;23.73;4.03;;;9.30;99.90;;;;;;5065971;28;20209;-67
2022/03/03 07:41:36;;;;;;;18.83;3.27;;;9.30;99.90;;;;;;5067336;28;20931;-67
2022/03/03 07:44:03;;;;;;;25.67;3.37;;;9.40;99.90;;;;;;5065985;28;20183;-64
2022/03/03 07:46:29;;;;;;;18.20;2.57;;;9.40;99.90;;;;;;5060434;28;20225;-64
2022/03/03 07:48:56;;;;;;;18.53;2.67;;;9.50;99.90;;;;;;5062077;28;20647;-66
2022/03/03 07:51:25;;;;;;;21.20;3.60;;;9.50;99.90;;;;;;5069226;28;20340;-66
2022/03/03 07:53:51;;;;;;;20.27;3.03;;;9.50;99.90;;;;;;5067152;28;20273;-63
2022/03/03 07:56:47;;;;;;;18.90;2.93;;;9.60;99.90;;;;;;5066051;28;20198;-64
2022/03/03 07:59:18;;;;;;;18.27;3.20;;;9.60;99.90;;;;;;5063806;28;20195;-64
2022/03/03 08:01:47;;;;;;;27.80;3.80;;;9.60;99.90;;;;;;5071072;28;20724;-64
2022/03/03 08:04:16;;;;;;;20.33;3.13;;;9.70;99.90;;;;;;5070741;28;20260;-65
2022/03/03 08:06:45;;;;;;;11.20;2.67;;;9.70;99.90;;;;;;5051040;28;20302;-65
2022/03/03 08:09:15;;;;;;;26.50;3.07;;;9.70;99.90;;;;;;5069586;28;20290;-64
2022/03/03 08:11:46;;;;;;;19.50;4.30;;;9.70;99.90;;;;;;5069699;28;20186;-65
2022/03/03 08:14:12;;;;;;;16.17;2.53;;;9.70;99.90;;;;;;5068239;28;20885;-67
2022/03/03 08:16:40;;;;;;;18.80;3.17;;;9.70;99.90;;;;;;5066193;28;20194;-66
2022/03/03 08:19:10;;;;;;;21.53;3.03;;;9.60;99.90;;;;;;5066206;28;20528;-65
2022/03/03 08:21:38;;;;;;;22.70;3.50;;;9.50;99.90;;;;;;5065871;28;20554;-66
2022/03/03 08:24:05;;;;;;;19.53;3.67;;;9.60;99.90;;;;;;5069616;28;20215;-64
2022/03/03 08:26:32;;;;;;;17.90;4.00;;;9.70;99.90;;;;;;5066225;28;20210;-65
2022/03/03 08:28:59;;;;;;;24.23;5.40;;;9.90;99.90;;;;;;5071738;28;20289;-64
2022/03/03 08:31:37;;;;;;;28.70;6.57;;;10.00;99.90;;;;;;5070402;28;20198;-65
2022/03/03 08:34:48;;;;;;;18.90;4.77;;;10.20;99.90;;;;;;5068631;28;20197;-65
2022/03/03 08:37:33;;;;;;;20.80;5.60;;;10.20;99.90;;;;;;5052014;28;20271;-65
2022/03/03 08:40:02;;;;;;;32.83;8.07;;;10.10;99.90;;;;;;5070063;28;20186;-64
2022/03/03 08:42:38;;;;;;;34.40;7.67;;;10.10;99.90;;;;;;5066896;28;20271;-65
2022/03/03 08:45:10;;;;;;;36.77;8.57;;;10.10;99.90;;;;;;5069214;28;20198;-64
2022/03/03 08:47:38;;;;;;;32.23;8.60;;;10.00;99.90;;;;;;5065910;28;20548;-64
2022/03/03 08:50:13;;;;;;;30.90;6.93;;;10.00;99.90;;;;;;5064969;28;20194;-68
2022/03/03 08:52:43;;;;;;;27.07;8.23;;;10.00;99.90;;;;;;5070072;28;20187;-67
2022/03/03 08:55:13;;;;;;;32.07;8.03;;;10.00;99.90;;;;;;5071000;28;20202;-67
2022/03/03 08:57:41;;;;;;;26.90;7.10;;;10.00;99.90;;;;;;5068541;28;20186;-66
2022/03/03 09:00:11;;;;;;;47.53;8.10;;;10.10;99.90;;;;;;5067888;28;20273;-65
2022/03/03 09:02:40;;;;;;;39.00;7.80;;;10.10;99.90;;;;;;5069492;28;20186;-67
2022/03/03 09:05:08;;;;;;;36.97;6.93;;;10.10;99.90;;;;;;5064526;28;20195;-65
2022/03/03 09:07:34;;;;;;;27.27;6.50;;;10.10;99.90;;;;;;5046696;28;20750;-63
2022/03/03 09:10:01;;;;;;;26.87;6.23;;;10.10;99.90;;;;;;5064440;28;20639;-65
2022/03/03 09:12:28;;;;;;;27.10;6.03;;;10.00;99.90;;;;;;5066643;28;20195;-65
2022/03/03 09:14:54;;;;;;;26.80;5.97;;;10.20;99.90;;;;;;5048734;28;20217;-69
2022/03/03 09:17:21;;;;;;;27.90;6.77;;;10.30;99.90;;;;;;5066347;28;20195;-67
2022/03/03 09:19:48;;;;;;;27.70;5.80;;;10.50;99.90;;;;;;5058521;28;20650;-67
2022/03/03 09:22:15;;;;;;;28.10;6.33;;;10.50;99.90;;;;;;5068258;28;20191;-66
2022/03/03 09:24:41;;;;;;;23.57;5.50;;;10.60;99.90;;;;;;5075328;28;20242;-66
2022/03/03 09:27:08;;;;;;;30.37;6.07;;;10.60;99.90;;;;;;5068480;28;20686;-68
2022/03/03 09:29:35;;;;;;;30.10;6.90;;;10.70;99.90;;;;;;5070242;28;20642;-66
2022/03/03 09:32:04;;;;;;;33.43;6.73;;;10.80;99.90;;;;;;5070103;28;20523;-66
2022/03/03 09:34:31;;;;;;;27.30;6.13;;;10.90;99.90;;;;;;5069932;28;20195;-66
2022/03/03 09:36:58;;;;;;;33.97;6.77;;;10.90;99.90;;;;;;5068437;28;20810;-67
2022/03/03 09:39:25;;;;;;;36.07;5.97;;;10.90;99.90;;;;;;5050622;28;20182;-66
2022/03/03 09:41:53;;;;;;;30.43;5.70;;;10.80;99.90;;;;;;5050759;28;20665;-67
2022/03/03 09:44:25;;;;;;;32.23;5.87;;;10.70;99.90;;;;;;5066207;28;20195;-67
2022/03/03 09:46:52;;;;;;;26.70;5.60;;;10.50;99.90;;;;;;5067204;28;20207;-67
2022/03/03 09:49:21;;;;;;;25.47;5.63;;;10.50;99.90;;;;;;5075679;28;20206;-68
2022/03/03 09:51:47;;;;;;;31.53;6.03;;;10.50;99.90;;;;;;5063044;28;20187;-66
2022/03/03 09:54:14;;;;;;;37.07;6.20;;;10.50;99.90;;;;;;5065967;28;20187;-66
2022/03/03 09:56:41;;;;;;;37.33;6.27;;;11.20;99.90;;;;;;5066117;28;20218;-66
2022/03/03 09:59:08;;;;;;;34.13;6.00;;;11.00;99.90;;;;;;5067021;28;20241;-67
2022/03/03 10:01:35;;;;;;;29.17;5.77;;;10.90;99.90;;;;;;5068748;28;20252;-67
2022/03/03 10:04:24;;;;;;;28.90;5.20;;;10.90;99.90;;;;;;5063423;28;20198;-66
2022/03/03 10:06:51;;;;;;;31.33;5.50;;;11.10;99.90;;;;;;5063656;28;20221;-66
2022/03/03 10:09:18;;;;;;;28.93;5.60;;;11.30;99.90;;;;;;5052668;28;20185;-66
2022/03/03 10:11:47;;;;;;;28.30;5.37;;;11.10;99.90;;;;;;5070620;28;20191;-66
2022/03/03 10:14:41;;;;;;;27.43;5.87;;;11.70;99.90;;;;;;5065172;28;20187;-66
2022/03/03 10:17:07;;;;;;;32.50;5.50;;;12.30;99.90;;;;;;5064626;28;20698;-66
2022/03/03 10:19:34;;;;;;;20.87;4.73;;;12.40;99.90;;;;;;5069698;28;20217;-67
2022/03/03 10:22:00;;;;;;;26.23;5.43;;;12.00;99.90;;;;;;5059985;28;21310;-66
2022/03/03 10:24:29;;;;;;;27.10;5.03;;;11.70;99.90;;;;;;5065519;28;20650;-68
2022/03/03 10:27:08;;;;;;;19.50;4.57;;;11.60;99.90;;;;;;5063627;28;20211;-67
2022/03/03 10:29:36;;;;;;;25.83;4.43;;;11.40;99.90;;;;;;5068806;28;20218;-66
2022/03/03 10:32:03;;;;;;;24.63;4.57;;;11.30;99.90;;;;;;5067298;28;20274;-67
2022/03/03 10:34:32;;;;;;;32.30;4.57;;;11.60;99.90;;;;;;5064497;28;20210;-67
2022/03/03 10:37:09;;;;;;;22.67;4.90;;;12.40;99.90;;;;;;5062564;28;20190;-66
2022/03/03 10:39:47;;;;;;;20.83;4.80;;;12.90;99.90;;;;;;5063834;28;20662;-66
2022/03/03 10:42:19;;;;;;;21.87;4.43;;;12.40;99.90;;;;;;5069323;28;20275;-66
2022/03/03 10:44:48;;;;;;;25.57;5.90;;;11.70;99.90;;;;;;5066133;28;20195;-66
2022/03/03 10:47:24;;;;;;;26.63;4.53;;;11.30;99.90;;;;;;5067337;28;20706;-67
2022/03/03 10:49:54;;;;;;;24.67;4.87;;;11.40;99.90;;;;;;5067600;28;20175;-66
2022/03/03 10:52:25;;;;;;;26.00;4.47;;;11.90;99.90;;;;;;5063034;28;20277;-68
2022/03/03 10:55:01;;;;;;;19.47;5.17;;;12.30;99.90;;;;;;5063010;28;20278;-67
2022/03/03 10:57:41;;;;;;;28.53;4.93;;;12.80;99.90;;;;;;5055621;28;20187;-68
2022/03/03 11:00:20;;;;;;;20.97;4.10;;;12.90;99.90;;;;;;5068031;28;20186;-66
2022/03/03 11:02:50;;;;;;;17.23;4.43;;;12.70;99.90;;;;;;5060713;28;20192;-65
2022/03/03 11:05:20;;;;;;;31.83;4.37;;;12.60;99.90;;;;;;5057523;28;20187;-66
2022/03/03 11:07:48;;;;;;;23.33;4.33;;;12.50;99.90;;;;;;5077413;28;20237;-66
2022/03/03 11:10:24;;;;;;;21.77;4.30;;;12.50;99.90;;;;;;5067111;28;20548;-67
2022/03/03 11:12:51;;;;;;;32.00;5.43;;;12.30;99.90;;;;;;5043797;28;20835;-66
2022/03/03 11:15:21;;;;;;;22.30;4.97;;;12.00;99.90;;;;;;5066307;28;20706;-66
2022/03/03 11:17:50;;;;;;;39.73;5.57;;;11.70;99.90;;;;;;5070854;28;20674;-66
2022/03/03 11:20:20;;;;;;;33.40;5.80;;;11.60;99.90;;;;;;5062938;28;20189;-66
2022/03/03 11:22:52;;;;;;;20.97;4.50;;;11.60;99.90;;;;;;5058074;28;20186;-65
2022/03/03 11:25:31;;;;;;;24.10;4.80;;;11.40;99.90;;;;;;5061403;28;20213;-66
2022/03/03 11:28:15;;;;;;;20.23;4.77;;;11.20;99.90;;;;;;5085551;28;20190;-65
2022/03/03 11:30:46;;;;;;;21.30;4.43;;;11.20;99.90;;;;;;5073995;28;20186;-66
2022/03/03 11:33:35;;;;;;;21.67;4.10;;;11.10;99.90;;;;;;5065224;28;20270;-65
2022/03/03 11:36:09;;;;;;;23.73;4.23;;;11.20;99.90;;;;;;5062522;28;20203;-66
2022/03/03 11:38:54;;;;;;;17.27;4.53;;;11.20;99.90;;;;;;5064120;28;20191;-65
2022/03/03 11:41:25;;;;;;;21.47;4.27;;;11.10;99.90;;;;;;5066858;28;20277;-67
2022/03/03 11:44:08;;;;;;;31.90;4.63;;;10.90;99.90;;;;;;5081385;28;20536;-65
2022/03/03 11:46:53;;;;;;;26.70;5.80;;;10.90;99.90;;;;;;5059895;28;20222;-65
2022/03/03 11:49:24;;;;;;;24.13;5.27;;;10.70;99.90;;;;;;5063173;28;20179;-65
2022/03/03 11:51:55;;;;;;;23.47;4.57;;;10.60;99.90;;;;;;5047707;28;20259;-65
2022/03/03 11:54:41;;;;;;;26.30;5.00;;;10.60;99.90;;;;;;5059791;28;20244;-66
2022/03/03 11:57:07;;;;;;;17.33;5.10;;;10.70;99.90;;;;;;5060652;28;20598;-65
2022/03/03 11:59:40;;;;;;;34.60;5.60;;;10.70;99.90;;;;;;5071945;28;20191;-66
2022/03/03 12:02:08;;;;;;;22.77;4.60;;;10.90;99.90;;;;;;5063353;28;20178;-65
2022/03/03 12:04:37;;;;;;;20.77;4.63;;;11.10;99.90;;;;;;5061491;28;20243;-65
2022/03/03 12:07:04;;;;;;;19.17;4.10;;;10.90;99.90;;;;;;5064035;28;20263;-65
2022/03/03 12:09:38;;;;;;;19.53;4.80;;;10.80;99.90;;;;;;5064724;28;20186;-66
2022/03/03 12:12:16;;;;;;;33.20;4.33;;;10.80;99.90;;;;;;5065275;28;20186;-66
2022/03/03 12:15:00;;;;;;;14.97;3.40;;;10.70;99.90;;;;;;5065416;28;20179;-67
2022/03/03 12:18:02;;;;;;;23.63;4.27;;;10.70;99.90;;;;;;5063252;28;20206;-67
2022/03/03 12:20:31;;;;;;;34.87;4.63;;;10.60;99.90;;;;;;5074775;28;20193;-65
2022/03/03 12:23:08;;;;;;;23.67;4.20;;;10.40;99.90;;;;;;5059404;28;20188;-66
2022/03/03 12:25:55;;;;;;;24.80;4.63;;;10.30;99.90;;;;;;5057474;28;20214;-67
2022/03/03 12:28:40;;;;;;;21.37;4.87;;;10.30;99.90;;;;;;5045147;28;20182;-66
2022/03/03 12:31:29;;;;;;;16.27;4.43;;;10.50;99.90;;;;;;5066726;28;20686;-67
2022/03/03 12:34:08;;;;;;;20.07;4.80;;;10.60;99.90;;;;;;5057713;28;20210;-66
2022/03/03 12:36:44;;;;;;;21.33;5.03;;;10.50;99.90;;;;;;5060822;28;20190;-65
2022/03/03 12:39:12;;;;;;;21.90;4.67;;;10.50;99.90;;;;;;5066802;28;20983;-66
2022/03/03 12:41:40;;;;;;;22.97;4.70;;;10.50;99.90;;;;;;5063810;28;20194;-65
2022/03/03 12:44:17;;;;;;;26.17;4.97;;;10.70;99.90;;;;;;5064225;28;20195;-66
2022/03/03 12:46:44;;;;;;;25.47;4.93;;;10.80;99.90;;;;;;5069808;28;20220;-67
2022/03/03 12:49:13;;;;;;;17.73;4.80;;;10.60;99.90;;;;;;5067804;28;20199;-66
2022/03/03 12:51:48;;;;;;;22.27;5.20;;;10.50;99.90;;;;;;5068044;28;20182;-66
2022/03/03 12:54:20;;;;;;;22.30;5.77;;;10.40;99.90;;;;;;5066148;28;20261;-65
2022/03/03 12:57:07;;;;;;;24.57;4.93;;;10.40;99.90;;;;;;5059029;28;20273;-65
2022/03/03 12:59:34;;;;;;;19.67;5.10;;;10.30;99.90;;;;;;5066279;28;20290;-66
2022/03/03 13:02:01;;;;;;;17.47;5.23;;;10.20;99.90;;;;;;5070263;28;20233;-66
2022/03/03 13:04:27;;;;;;;17.90;5.17;;;10.30;99.90;;;;;;5067534;28;20183;-66
2022/03/03 13:07:10;;;;;;;19.60;4.53;;;10.30;99.90;;;;;;5082018;28;20214;-65
2022/03/03 13:09:37;;;;;;;27.23;5.37;;;10.30;99.90;;;;;;5066490;28;20184;-65
2022/03/03 13:12:04;;;;;;;19.97;4.67;;;10.20;99.90;;;;;;5071712;28;20182;-67
2022/03/03 13:14:30;;;;;;;17.47;5.33;;;10.10;99.90;;;;;;5077002;28;20286;-65
2022/03/03 13:16:57;;;;;;;23.90;5.20;;;10.10;99.90;;;;;;5080876;28;20223;-65